sensor_id;sensor_type;location;lat;lon;timestamp;pressure;altitude;pressure_sealevel;temperature;humidity
65173;BME280;69059;52.218;5.172;2023-05-23T00:00:22;99791.78;;;15.50;100.00
65173;BME280;69059;52.218;5.172;2023-05-23T00:02:51;99792.78;;;15.20;100.00
65173;BME280;69059;52.218;5.172;2023-05-23T00:05:19;99797.47;;;15.30;100.00
65173;BME280;69059;52.218;5.172;2023-05-23T00:07:47;99793.56;;;15.21;100.00
65173;BME280;69059;52.218;5.172;2023-05-23T00:10:15;99782.25;;;15.20;100.00
65173;BME280;69059;52.218;5.172;2023-05-23T00:12:43;99770.44;;;15.06;100.00
65173;BME280;69059;52.218;5.172;2023-05-23T00:15:13;99774.22;;;14.98;100.00
65173;BME280;69059;52.218;5.172;2023-05-23T00:17:41;99772.03;;;15.07;100.00
65173;BME280;69059;52.218;5.172;2023-05-23T00:20:12;99781.41;;;15.03;100.00
65173;BME280;69059;52.218;5.172;2023-05-23T00:22:39;99777.41;;;15.00;100.00
65173;BME280;69059;52.218;5.172;2023-05-23T00:25:09;99769.75;;;14.99;100.00
65173;BME280;69059;52.218;5.172;2023-05-23T00:27:36;99768.50;;;15.01;100.00
65173;BME280;69059;52.218;5.172;2023-05-23T00:30:05;99773.41;;;14.98;100.00
65173;BME280;69059;52.218;5.172;2023-05-23T00:32:33;99761.19;;;15.03;100.00
65173;BME280;69059;52.218;5.172;2023-05-23T00:35:01;99773.66;;;14.96;100.00
65173;BME280;69059;52.218;5.172;2023-05-23T00:37:30;99758.81;;;14.90;100.00
65173;BME280;69059;52.218;5.172;2023-05-23T00:39:59;99772.75;;;14.91;100.00
65173;BME280;69059;52.218;5.172;2023-05-23T00:42:27;99777.44;;;14.89;100.00
65173;BME280;69059;52.218;5.172;2023-05-23T00:44:55;99773.22;;;14.88;100.00
65173;BME280;69059;52.218;5.172;2023-05-23T00:47:23;99738.31;;;14.64;100.00
65173;BME280;69059;52.218;5.172;2023-05-23T00:49:51;99785.19;;;14.95;100.00
65173;BME280;69059;52.218;5.172;2023-05-23T00:52:18;99792.38;;;15.00;100.00
65173;BME280;69059;52.218;5.172;2023-05-23T00:54:48;99794.66;;;14.96;100.00
65173;BME280;69059;52.218;5.172;2023-05-23T00:57:16;99790.22;;;14.97;100.00
65173;BME280;69059;52.218;5.172;2023-05-23T00:59:44;99782.69;;;14.89;100.00
65173;BME280;69059;52.218;5.172;2023-05-23T01:02:13;99775.97;;;14.81;100.00
65173;BME280;69059;52.218;5.172;2023-05-23T01:04:42;99760.53;;;14.85;100.00
65173;BME280;69059;52.218;5.172;2023-05-23T01:07:10;99748.91;;;14.81;100.00
65173;BME280;69059;52.218;5.172;2023-05-23T01:09:39;99744.44;;;14.81;100.00
65173;BME280;69059;52.218;5.172;2023-05-23T01:12:16;99740.00;;;14.82;100.00
65173;BME280;69059;52.218;5.172;2023-05-23T01:14:50;99716.47;;;14.75;100.00
65173;BME280;69059;52.218;5.172;2023-05-23T01:17:25;99715.22;;;14.78;100.00
65173;BME280;69059;52.218;5.172;2023-05-23T01:19:58;99692.59;;;14.77;100.00
65173;BME280;69059;52.218;5.172;2023-05-23T01:22:37;99679.69;;;14.75;100.00
65173;BME280;69059;52.218;5.172;2023-05-23T01:25:27;99694.66;;;14.75;100.00
65173;BME280;69059;52.218;5.172;2023-05-23T01:28:04;99683.00;;;14.70;100.00
65173;BME280;69059;52.218;5.172;2023-05-23T01:30:36;99701.03;;;14.79;100.00
65173;BME280;69059;52.218;5.172;2023-05-23T01:33:07;99696.91;;;14.83;100.00
65173;BME280;69059;52.218;5.172;2023-05-23T01:35:35;99701.63;;;14.81;100.00
65173;BME280;69059;52.218;5.172;2023-05-23T01:38:04;99706.41;;;14.72;100.00
65173;BME280;69059;52.218;5.172;2023-05-23T01:40:32;99694.56;;;14.58;100.00
65173;BME280;69059;52.218;5.172;2023-05-23T01:43:00;99692.63;;;14.65;100.00
65173;BME280;69059;52.218;5.172;2023-05-23T01:45:29;99685.09;;;14.68;100.00
65173;BME280;69059;52.218;5.172;2023-05-23T01:47:58;99694.78;;;14.68;100.00
65173;BME280;69059;52.218;5.172;2023-05-23T01:50:27;99689.53;;;14.68;100.00
65173;BME280;69059;52.218;5.172;2023-05-23T01:52:55;99696.13;;;14.70;100.00
65173;BME280;69059;52.218;5.172;2023-05-23T01:55:24;99700.16;;;14.61;100.00
65173;BME280;69059;52.218;5.172;2023-05-23T01:57:54;99700.16;;;14.61;100.00
65173;BME280;69059;52.218;5.172;2023-05-23T02:00:22;99705.06;;;14.58;100.00
65173;BME280;69059;52.218;5.172;2023-05-23T02:02:52;99706.00;;;14.52;100.00
65173;BME280;69059;52.218;5.172;2023-05-23T02:05:20;99719.22;;;14.57;100.00
65173;BME280;69059;52.218;5.172;2023-05-23T02:07:47;99704.25;;;14.57;100.00
65173;BME280;69059;52.218;5.172;2023-05-23T02:10:15;99714.66;;;14.64;100.00
65173;BME280;69059;52.218;5.172;2023-05-23T02:12:43;99728.69;;;14.69;100.00
65173;BME280;69059;52.218;5.172;2023-05-23T02:15:11;99728.50;;;14.48;100.00
65173;BME280;69059;52.218;5.172;2023-05-23T02:17:39;99726.22;;;14.51;100.00
65173;BME280;69059;52.218;5.172;2023-05-23T02:20:10;99734.09;;;14.51;100.00
65173;BME280;69059;52.218;5.172;2023-05-23T02:22:38;99747.81;;;14.53;100.00
65173;BME280;69059;52.218;5.172;2023-05-23T02:25:06;99749.50;;;14.59;100.00
65173;BME280;69059;52.218;5.172;2023-05-23T02:27:34;99752.59;;;14.56;100.00
65173;BME280;69059;52.218;5.172;2023-05-23T02:30:02;99748.25;;;14.50;100.00
65173;BME280;69059;52.218;5.172;2023-05-23T02:32:30;99781.94;;;14.53;100.00
65173;BME280;69059;52.218;5.172;2023-05-23T02:34:57;99766.19;;;14.53;100.00
65173;BME280;69059;52.218;5.172;2023-05-23T02:37:27;99767.78;;;14.54;100.00
65173;BME280;69059;52.218;5.172;2023-05-23T02:39:55;99782.25;;;14.57;100.00
65173;BME280;69059;52.218;5.172;2023-05-23T02:42:22;99806.47;;;14.59;100.00
65173;BME280;69059;52.218;5.172;2023-05-23T02:44:50;99797.47;;;14.43;100.00
65173;BME280;69059;52.218;5.172;2023-05-23T02:47:18;99804.06;;;14.46;100.00
65173;BME280;69059;52.218;5.172;2023-05-23T02:49:46;99785.31;;;14.19;100.00
65173;BME280;69059;52.218;5.172;2023-05-23T02:52:13;99821.44;;;14.47;100.00
65173;BME280;69059;52.218;5.172;2023-05-23T02:54:43;99835.38;;;14.47;100.00
65173;BME280;69059;52.218;5.172;2023-05-23T02:57:11;99829.31;;;14.47;100.00
65173;BME280;69059;52.218;5.172;2023-05-23T02:59:39;99830.22;;;14.41;100.00
65173;BME280;69059;52.218;5.172;2023-05-23T03:02:07;99854.44;;;14.43;100.00
65173;BME280;69059;52.218;5.172;2023-05-23T03:04:35;99869.09;;;14.32;100.00
65173;BME280;69059;52.218;5.172;2023-05-23T03:07:04;99859.69;;;14.43;100.00
65173;BME280;69059;52.218;5.172;2023-05-23T03:09:39;99869.22;;;14.37;100.00
65173;BME280;69059;52.218;5.172;2023-05-23T03:12:09;99883.16;;;14.38;100.00
65173;BME280;69059;52.218;5.172;2023-05-23T03:14:36;99857.56;;;14.21;100.00
65173;BME280;69059;52.218;5.172;2023-05-23T03:17:04;99881.09;;;14.28;100.00
65173;BME280;69059;52.218;5.172;2023-05-23T03:19:32;99895.81;;;14.29;100.00
65173;BME280;69059;52.218;5.172;2023-05-23T03:22:02;99885.78;;;14.26;100.00
65173;BME280;69059;52.218;5.172;2023-05-23T03:24:30;99890.88;;;14.21;100.00
65173;BME280;69059;52.218;5.172;2023-05-23T03:26:58;99897.47;;;14.12;100.00
65173;BME280;69059;52.218;5.172;2023-05-23T03:29:28;99905.94;;;14.14;100.00
65173;BME280;69059;52.218;5.172;2023-05-23T03:31:56;99875.50;;;13.94;100.00
65173;BME280;69059;52.218;5.172;2023-05-23T03:34:23;99911.25;;;14.07;100.00
65173;BME280;69059;52.218;5.172;2023-05-23T03:36:52;99922.66;;;14.01;100.00
65173;BME280;69059;52.218;5.172;2023-05-23T03:39:20;99913.88;;;14.07;100.00
65173;BME280;69059;52.218;5.172;2023-05-23T03:41:48;99930.00;;;14.11;100.00
65173;BME280;69059;52.218;5.172;2023-05-23T03:44:16;99937.28;;;14.09;100.00
65173;BME280;69059;52.218;5.172;2023-05-23T03:46:45;99938.53;;;14.06;100.00
65173;BME280;69059;52.218;5.172;2023-05-23T03:49:13;99936.59;;;14.02;100.00
65173;BME280;69059;52.218;5.172;2023-05-23T03:51:41;99948.59;;;14.09;100.00
65173;BME280;69059;52.218;5.172;2023-05-23T03:54:09;99954.63;;;14.10;100.00
65173;BME280;69059;52.218;5.172;2023-05-23T03:56:37;99960.22;;;14.02;100.00
65173;BME280;69059;52.218;5.172;2023-05-23T03:59:04;99969.47;;;14.04;100.00
65173;BME280;69059;52.218;5.172;2023-05-23T04:01:32;99974.56;;;13.99;100.00
65173;BME280;69059;52.218;5.172;2023-05-23T04:04:02;99987.31;;;13.95;100.00
65173;BME280;69059;52.218;5.172;2023-05-23T04:06:30;99983.69;;;13.96;100.00
65173;BME280;69059;52.218;5.172;2023-05-23T04:08:58;99991.22;;;13.93;100.00
65173;BME280;69059;52.218;5.172;2023-05-23T04:11:26;99989.34;;;13.93;100.00
65173;BME280;69059;52.218;5.172;2023-05-23T04:13:54;99994.06;;;13.91;100.00
65173;BME280;69059;52.218;5.172;2023-05-23T04:16:22;100007.44;;;13.83;100.00
65173;BME280;69059;52.218;5.172;2023-05-23T04:18:50;100009.63;;;13.86;100.00
65173;BME280;69059;52.218;5.172;2023-05-23T04:21:19;100016.13;;;13.84;100.00
65173;BME280;69059;52.218;5.172;2023-05-23T04:23:46;100018.53;;;13.85;100.00
65173;BME280;69059;52.218;5.172;2023-05-23T04:26:14;100023.84;;;13.79;100.00
65173;BME280;69059;52.218;5.172;2023-05-23T04:28:42;100032.22;;;13.69;100.00
65173;BME280;69059;52.218;5.172;2023-05-23T04:31:11;100026.97;;;13.69;100.00
65173;BME280;69059;52.218;5.172;2023-05-23T04:33:40;100032.00;;;13.71;100.00
65173;BME280;69059;52.218;5.172;2023-05-23T04:36:08;100037.41;;;13.76;100.00
65173;BME280;69059;52.218;5.172;2023-05-23T04:38:37;100054.22;;;13.68;100.00
65173;BME280;69059;52.218;5.172;2023-05-23T04:41:06;100054.22;;;13.68;100.00
65173;BME280;69059;52.218;5.172;2023-05-23T04:43:35;100078.31;;;13.58;100.00
65173;BME280;69059;52.218;5.172;2023-05-23T04:46:08;100079.13;;;13.59;100.00
65173;BME280;69059;52.218;5.172;2023-05-23T04:48:36;100094.06;;;13.58;100.00
65173;BME280;69059;52.218;5.172;2023-05-23T04:51:04;100098.28;;;13.59;100.00
65173;BME280;69059;52.218;5.172;2023-05-23T04:53:36;100116.84;;;13.58;100.00
65173;BME280;69059;52.218;5.172;2023-05-23T04:56:06;100132.47;;;13.46;100.00
65173;BME280;69059;52.218;5.172;2023-05-23T04:58:35;100137.78;;;13.40;100.00
65173;BME280;69059;52.218;5.172;2023-05-23T05:01:03;100146.47;;;13.40;100.00
65173;BME280;69059;52.218;5.172;2023-05-23T05:03:32;100153.19;;;13.30;100.00
65173;BME280;69059;52.218;5.172;2023-05-23T05:05:59;100180.38;;;13.35;100.00
65173;BME280;69059;52.218;5.172;2023-05-23T05:08:27;100187.50;;;13.21;100.00
65173;BME280;69059;52.218;5.172;2023-05-23T05:10:57;100209.59;;;13.39;100.00
65173;BME280;69059;52.218;5.172;2023-05-23T05:13:24;100225.91;;;13.41;100.00
65173;BME280;69059;52.218;5.172;2023-05-23T05:15:52;100257.19;;;13.36;100.00
65173;BME280;69059;52.218;5.172;2023-05-23T05:18:20;100266.06;;;13.35;100.00
65173;BME280;69059;52.218;5.172;2023-05-23T05:20:48;100263.47;;;13.35;100.00
65173;BME280;69059;52.218;5.172;2023-05-23T05:23:16;100265.94;;;13.23;100.00
65173;BME280;69059;52.218;5.172;2023-05-23T05:25:44;100270.56;;;13.27;100.00
65173;BME280;69059;52.218;5.172;2023-05-23T05:28:13;100286.28;;;13.27;100.00
65173;BME280;69059;52.218;5.172;2023-05-23T05:30:41;100305.00;;;13.31;100.00
65173;BME280;69059;52.218;5.172;2023-05-23T05:33:09;100305.19;;;13.36;100.00
65173;BME280;69059;52.218;5.172;2023-05-23T05:35:37;100315.09;;;13.34;100.00
65173;BME280;69059;52.218;5.172;2023-05-23T05:38:05;100339.72;;;13.26;100.00
65173;BME280;69059;52.218;5.172;2023-05-23T05:40:34;100364.28;;;13.39;100.00
65173;BME280;69059;52.218;5.172;2023-05-23T05:43:01;100385.88;;;13.34;100.00
65173;BME280;69059;52.218;5.172;2023-05-23T05:45:30;100400.44;;;13.23;100.00
65173;BME280;69059;52.218;5.172;2023-05-23T05:47:58;100395.22;;;13.17;100.00
65173;BME280;69059;52.218;5.172;2023-05-23T05:50:26;100390.16;;;13.29;100.00
65173;BME280;69059;52.218;5.172;2023-05-23T05:52:54;100374.38;;;13.35;100.00
65173;BME280;69059;52.218;5.172;2023-05-23T05:55:22;100387.09;;;13.38;100.00
65173;BME280;69059;52.218;5.172;2023-05-23T05:57:50;100405.22;;;13.33;100.00
65173;BME280;69059;52.218;5.172;2023-05-23T06:00:18;100393.34;;;13.31;100.00
65173;BME280;69059;52.218;5.172;2023-05-23T06:02:48;100399.78;;;13.35;100.00
65173;BME280;69059;52.218;5.172;2023-05-23T06:05:17;100400.38;;;13.37;100.00
65173;BME280;69059;52.218;5.172;2023-05-23T06:07:47;100397.16;;;13.35;100.00
65173;BME280;69059;52.218;5.172;2023-05-23T06:10:15;100408.06;;;13.32;100.00
65173;BME280;69059;52.218;5.172;2023-05-23T06:12:44;100417.53;;;13.39;100.00
65173;BME280;69059;52.218;5.172;2023-05-23T06:15:12;100414.31;;;13.31;100.00
65173;BME280;69059;52.218;5.172;2023-05-23T06:17:40;100411.69;;;13.31;100.00
65173;BME280;69059;52.218;5.172;2023-05-23T06:20:10;100407.47;;;13.30;100.00
65173;BME280;69059;52.218;5.172;2023-05-23T06:22:38;100398.41;;;13.25;100.00
65173;BME280;69059;52.218;5.172;2023-05-23T06:25:07;100386.13;;;13.26;100.00
65173;BME280;69059;52.218;5.172;2023-05-23T06:27:34;100352.25;;;13.05;100.00
65173;BME280;69059;52.218;5.172;2023-05-23T06:30:03;100344.81;;;13.15;100.00
65173;BME280;69059;52.218;5.172;2023-05-23T06:32:31;100331.50;;;13.16;100.00
65173;BME280;69059;52.218;5.172;2023-05-23T06:34:59;100304.06;;;13.12;100.00
65173;BME280;69059;52.218;5.172;2023-05-23T06:37:28;100296.81;;;13.08;100.00
65173;BME280;69059;52.218;5.172;2023-05-23T06:39:56;100280.28;;;13.07;100.00
65173;BME280;69059;52.218;5.172;2023-05-23T06:42:24;100267.78;;;13.09;100.00
65173;BME280;69059;52.218;5.172;2023-05-23T06:44:52;100269.84;;;13.01;100.00
65173;BME280;69059;52.218;5.172;2023-05-23T06:47:20;100248.91;;;12.87;100.00
65173;BME280;69059;52.218;5.172;2023-05-23T06:49:48;100239.84;;;12.90;100.00
65173;BME280;69059;52.218;5.172;2023-05-23T06:52:16;100232.19;;;12.88;100.00
65173;BME280;69059;52.218;5.172;2023-05-23T06:54:45;100240.25;;;12.87;100.00
65173;BME280;69059;52.218;5.172;2023-05-23T06:57:13;100238.00;;;12.97;100.00
65173;BME280;69059;52.218;5.172;2023-05-23T06:59:41;100270.44;;;12.96;100.00
65173;BME280;69059;52.218;5.172;2023-05-23T07:02:09;100294.66;;;12.91;100.00
65173;BME280;69059;52.218;5.172;2023-05-23T07:04:36;100302.72;;;12.83;100.00
65173;BME280;69059;52.218;5.172;2023-05-23T07:07:05;100338.13;;;13.19;100.00
65173;BME280;69059;52.218;5.172;2023-05-23T07:09:32;100381.84;;;13.32;100.00
65173;BME280;69059;52.218;5.172;2023-05-23T07:12:02;100410.84;;;13.50;100.00
65173;BME280;69059;52.218;5.172;2023-05-23T07:14:29;100473.34;;;13.66;100.00
65173;BME280;69059;52.218;5.172;2023-05-23T07:16:57;100557.31;;;13.53;100.00
65173;BME280;69059;52.218;5.172;2023-05-23T07:19:25;100611.38;;;13.54;100.00
65173;BME280;69059;52.218;5.172;2023-05-23T07:21:53;100655.97;;;13.54;100.00
65173;BME280;69059;52.218;5.172;2023-05-23T07:24:21;100670.28;;;13.65;100.00
65173;BME280;69059;52.218;5.172;2023-05-23T07:26:50;100663.41;;;13.70;100.00
65173;BME280;69059;52.218;5.172;2023-05-23T07:29:20;100708.19;;;13.55;100.00
65173;BME280;69059;52.218;5.172;2023-05-23T07:31:47;100717.47;;;13.45;100.00
65173;BME280;69059;52.218;5.172;2023-05-23T07:34:15;100684.19;;;13.58;100.00
65173;BME280;69059;52.218;5.172;2023-05-23T07:36:43;100724.72;;;13.56;100.00
65173;BME280;69059;52.218;5.172;2023-05-23T07:39:11;100691.25;;;13.84;100.00
65173;BME280;69059;52.218;5.172;2023-05-23T07:41:38;100696.91;;;14.01;100.00
65173;BME280;69059;52.218;5.172;2023-05-23T07:44:06;100749.00;;;14.17;100.00
65173;BME280;69059;52.218;5.172;2023-05-23T07:46:36;100766.75;;;14.28;100.00
65173;BME280;69059;52.218;5.172;2023-05-23T07:49:04;100845.91;;;14.19;100.00
65173;BME280;69059;52.218;5.172;2023-05-23T07:51:32;100825.53;;;14.21;100.00
65173;BME280;69059;52.218;5.172;2023-05-23T07:53:59;100862.69;;;14.05;100.00
65173;BME280;69059;52.218;5.172;2023-05-23T07:56:27;100837.44;;;14.04;100.00
65173;BME280;69059;52.218;5.172;2023-05-23T07:58:55;100805.09;;;13.96;100.00
65173;BME280;69059;52.218;5.172;2023-05-23T08:01:23;100834.81;;;14.04;100.00
65173;BME280;69059;52.218;5.172;2023-05-23T08:03:52;100828.34;;;14.19;100.00
65173;BME280;69059;52.218;5.172;2023-05-23T08:06:20;100835.88;;;14.42;100.00
65173;BME280;69059;52.218;5.172;2023-05-23T08:08:48;100896.47;;;14.47;100.00
65173;BME280;69059;52.218;5.172;2023-05-23T08:11:16;100958.69;;;14.40;100.00
65173;BME280;69059;52.218;5.172;2023-05-23T08:13:44;100936.81;;;14.33;100.00
65173;BME280;69059;52.218;5.172;2023-05-23T08:16:12;100954.88;;;14.56;100.00
65173;BME280;69059;52.218;5.172;2023-05-23T08:18:39;100992.69;;;14.55;100.00
65173;BME280;69059;52.218;5.172;2023-05-23T08:21:09;101030.78;;;14.38;100.00
65173;BME280;69059;52.218;5.172;2023-05-23T08:23:37;101001.53;;;14.47;100.00
65173;BME280;69059;52.218;5.172;2023-05-23T08:26:04;101085.53;;;14.34;100.00
65173;BME280;69059;52.218;5.172;2023-05-23T08:28:32;101074.44;;;14.39;100.00
65173;BME280;69059;52.218;5.172;2023-05-23T08:31:00;101080.41;;;14.67;100.00
65173;BME280;69059;52.218;5.172;2023-05-23T08:33:28;101087.94;;;15.10;100.00
65173;BME280;69059;52.218;5.172;2023-05-23T08:35:56;101067.72;;;15.43;100.00
65173;BME280;69059;52.218;5.172;2023-05-23T08:38:25;101161.66;;;15.75;100.00
65173;BME280;69059;52.218;5.172;2023-05-23T08:40:55;101275.66;;;15.76;100.00
65173;BME280;69059;52.218;5.172;2023-05-23T08:43:26;101413.13;;;15.65;100.00
65173;BME280;69059;52.218;5.172;2023-05-23T08:45:54;101524.03;;;15.34;100.00
65173;BME280;69059;52.218;5.172;2023-05-23T08:48:22;101471.53;;;15.54;100.00
65173;BME280;69059;52.218;5.172;2023-05-23T08:50:54;101465.84;;;15.91;100.00
65173;BME280;69059;52.218;5.172;2023-05-23T08:53:27;101572.75;;;16.20;100.00
65173;BME280;69059;52.218;5.172;2023-05-23T08:55:57;101610.81;;;16.18;100.00
65173;BME280;69059;52.218;5.172;2023-05-23T08:58:28;101644.69;;;16.27;100.00
65173;BME280;69059;52.218;5.172;2023-05-23T09:00:56;101715.47;;;16.37;100.00
65173;BME280;69059;52.218;5.172;2023-05-23T09:03:26;101733.75;;;16.38;100.00
65173;BME280;69059;52.218;5.172;2023-05-23T09:05:54;101743.38;;;16.59;100.00
65173;BME280;69059;52.218;5.172;2023-05-23T09:08:22;101811.19;;;17.06;100.00
65173;BME280;69059;52.218;5.172;2023-05-23T09:10:53;101882.69;;;16.83;100.00
65173;BME280;69059;52.218;5.172;2023-05-23T09:13:21;101847.22;;;16.58;100.00
65173;BME280;69059;52.218;5.172;2023-05-23T09:15:56;101848.84;;;16.31;100.00
65173;BME280;69059;52.218;5.172;2023-05-23T09:18:25;101828.50;;;16.25;100.00
65173;BME280;69059;52.218;5.172;2023-05-23T09:20:53;101782.59;;;16.69;100.00
65173;BME280;69059;52.218;5.172;2023-05-23T09:23:21;101875.53;;;16.77;100.00
65173;BME280;69059;52.218;5.172;2023-05-23T09:25:49;101864.16;;;16.70;100.00
65173;BME280;69059;52.218;5.172;2023-05-23T09:28:18;101972.00;;;16.65;100.00
65173;BME280;69059;52.218;5.172;2023-05-23T09:30:46;101947.88;;;16.47;100.00
65173;BME280;69059;52.218;5.172;2023-05-23T09:33:14;101981.91;;;16.63;100.00
65173;BME280;69059;52.218;5.172;2023-05-23T09:35:43;101965.22;;;16.56;100.00
65173;BME280;69059;52.218;5.172;2023-05-23T09:38:12;101953.63;;;16.29;100.00
65173;BME280;69059;52.218;5.172;2023-05-23T09:40:43;101928.19;;;16.22;100.00
65173;BME280;69059;52.218;5.172;2023-05-23T09:43:11;101935.47;;;16.41;100.00
65173;BME280;69059;52.218;5.172;2023-05-23T09:45:45;101914.13;;;16.36;100.00
65173;BME280;69059;52.218;5.172;2023-05-23T09:48:12;101893.06;;;16.36;100.00
65173;BME280;69059;52.218;5.172;2023-05-23T09:50:40;101913.28;;;16.29;100.00
65173;BME280;69059;52.218;5.172;2023-05-23T09:53:08;101947.41;;;16.37;100.00
65173;BME280;69059;52.218;5.172;2023-05-23T09:55:36;101951.97;;;16.49;100.00
65173;BME280;69059;52.218;5.172;2023-05-23T09:58:06;101983.22;;;16.74;100.00
65173;BME280;69059;52.218;5.172;2023-05-23T10:00:35;101974.47;;;16.67;100.00
65173;BME280;69059;52.218;5.172;2023-05-23T10:03:10;101993.28;;;16.42;100.00
65173;BME280;69059;52.218;5.172;2023-05-23T10:05:43;101957.41;;;16.48;100.00
65173;BME280;69059;52.218;5.172;2023-05-23T10:08:13;101941.50;;;16.13;100.00
65173;BME280;69059;52.218;5.172;2023-05-23T10:13:56;101899.09;;;16.08;100.00
65173;BME280;69059;52.218;5.172;2023-05-23T10:16:27;101935.53;;;16.26;100.00
65173;BME280;69059;52.218;5.172;2023-05-23T10:19:06;101995.97;;;16.49;100.00
65173;BME280;69059;52.218;5.172;2023-05-23T10:21:41;101971.84;;;16.95;100.00
65173;BME280;69059;52.218;5.172;2023-05-23T10:24:13;102032.41;;;17.09;100.00
65173;BME280;69059;52.218;5.172;2023-05-23T10:26:42;102022.75;;;17.23;100.00
65173;BME280;69059;52.218;5.172;2023-05-23T10:29:11;102061.50;;;16.73;100.00
65173;BME280;69059;52.218;5.172;2023-05-23T10:31:39;102025.13;;;16.83;100.00
65173;BME280;69059;52.218;5.172;2023-05-23T10:34:14;102023.41;;;16.76;100.00
65173;BME280;69059;52.218;5.172;2023-05-23T10:36:55;102020.53;;;16.71;100.00
65173;BME280;69059;52.218;5.172;2023-05-23T10:39:35;102020.13;;;16.53;100.00
65173;BME280;69059;52.218;5.172;2023-05-23T10:42:10;101994.41;;;16.76;100.00
65173;BME280;69059;52.218;5.172;2023-05-23T10:44:39;101964.56;;;16.97;100.00
65173;BME280;69059;52.218;5.172;2023-05-23T10:47:07;102021.72;;;17.17;100.00
65173;BME280;69059;52.218;5.172;2023-05-23T10:49:41;102005.97;;;17.65;100.00
65173;BME280;69059;52.218;5.172;2023-05-23T10:52:10;102043.94;;;18.05;100.00
65173;BME280;69059;52.218;5.172;2023-05-23T10:54:42;102112.25;;;18.08;100.00
65173;BME280;69059;52.218;5.172;2023-05-23T10:57:14;102106.59;;;18.18;100.00
65173;BME280;69059;52.218;5.172;2023-05-23T10:59:44;102154.41;;;18.30;100.00
65173;BME280;69059;52.218;5.172;2023-05-23T11:02:13;102169.34;;;18.03;100.00
65173;BME280;69059;52.218;5.172;2023-05-23T11:04:43;102118.41;;;18.22;100.00
65173;BME280;69059;52.218;5.172;2023-05-23T11:07:29;102128.56;;;18.18;100.00
65173;BME280;69059;52.218;5.172;2023-05-23T11:10:08;102112.13;;;18.23;100.00
65173;BME280;69059;52.218;5.172;2023-05-23T11:12:40;102116.34;;;17.76;100.00
65173;BME280;69059;52.218;5.172;2023-05-23T11:15:20;102103.25;;;17.34;100.00
65173;BME280;69059;52.218;5.172;2023-05-23T11:17:50;102097.78;;;17.14;100.00
65173;BME280;69059;52.218;5.172;2023-05-23T11:20:22;102081.81;;;16.94;100.00
65173;BME280;69059;52.218;5.172;2023-05-23T11:22:53;102075.34;;;16.75;100.00
65173;BME280;69059;52.218;5.172;2023-05-23T11:25:38;102080.63;;;16.61;100.00
65173;BME280;69059;52.218;5.172;2023-05-23T11:28:07;102076.94;;;16.98;100.00
65173;BME280;69059;52.218;5.172;2023-05-23T11:30:36;102054.56;;;17.15;100.00
65173;BME280;69059;52.218;5.172;2023-05-23T11:33:09;102152.22;;;16.94;100.00
65173;BME280;69059;52.218;5.172;2023-05-23T11:35:42;102110.19;;;16.92;100.00
65173;BME280;69059;52.218;5.172;2023-05-23T11:38:10;102101.22;;;17.08;100.00
65173;BME280;69059;52.218;5.172;2023-05-23T11:40:39;102142.97;;;16.83;100.00
65173;BME280;69059;52.218;5.172;2023-05-23T11:43:08;102132.91;;;17.14;100.00
65173;BME280;69059;52.218;5.172;2023-05-23T11:45:37;102148.19;;;17.19;100.00
65173;BME280;69059;52.218;5.172;2023-05-23T11:48:06;102116.63;;;17.11;100.00
65173;BME280;69059;52.218;5.172;2023-05-23T11:50:44;102129.41;;;17.35;100.00
65173;BME280;69059;52.218;5.172;2023-05-23T11:53:12;102132.41;;;17.26;100.00
65173;BME280;69059;52.218;5.172;2023-05-23T11:55:47;102116.66;;;16.90;100.00
65173;BME280;69059;52.218;5.172;2023-05-23T11:58:16;102124.78;;;17.37;100.00
65173;BME280;69059;52.218;5.172;2023-05-23T12:00:44;102116.06;;;17.65;100.00
65173;BME280;69059;52.218;5.172;2023-05-23T12:03:12;102115.78;;;18.29;100.00
65173;BME280;69059;52.218;5.172;2023-05-23T12:05:43;102166.00;;;18.29;100.00
65173;BME280;69059;52.218;5.172;2023-05-23T12:08:12;102168.38;;;18.10;100.00
65173;BME280;69059;52.218;5.172;2023-05-23T12:10:48;102167.38;;;18.59;100.00
65173;BME280;69059;52.218;5.172;2023-05-23T12:13:16;102176.97;;;18.67;100.00
65173;BME280;69059;52.218;5.172;2023-05-23T12:15:44;102172.44;;;18.13;100.00
65173;BME280;69059;52.218;5.172;2023-05-23T12:18:15;102169.72;;;18.00;100.00
65173;BME280;69059;52.218;5.172;2023-05-23T12:20:44;102170.44;;;17.87;100.00
65173;BME280;69059;52.218;5.172;2023-05-23T12:23:17;102174.50;;;17.62;100.00
65173;BME280;69059;52.218;5.172;2023-05-23T12:25:49;102166.53;;;17.27;100.00
65173;BME280;69059;52.218;5.172;2023-05-23T12:28:17;102175.44;;;17.26;100.00
65173;BME280;69059;52.218;5.172;2023-05-23T12:30:46;102172.19;;;17.73;100.00
65173;BME280;69059;52.218;5.172;2023-05-23T12:33:14;102170.78;;;18.12;100.00
65173;BME280;69059;52.218;5.172;2023-05-23T12:35:43;102187.91;;;17.81;100.00
65173;BME280;69059;52.218;5.172;2023-05-23T12:38:14;102192.28;;;17.96;100.00
65173;BME280;69059;52.218;5.172;2023-05-23T12:40:42;102204.56;;;17.61;100.00
65173;BME280;69059;52.218;5.172;2023-05-23T12:43:10;102214.28;;;17.53;100.00
65173;BME280;69059;52.218;5.172;2023-05-23T12:45:38;102198.06;;;17.57;100.00
65173;BME280;69059;52.218;5.172;2023-05-23T12:48:06;102206.09;;;17.48;100.00
65173;BME280;69059;52.218;5.172;2023-05-23T12:50:34;102208.31;;;17.45;100.00
65173;BME280;69059;52.218;5.172;2023-05-23T12:53:03;102191.41;;;17.39;100.00
65173;BME280;69059;52.218;5.172;2023-05-23T12:55:31;102203.41;;;17.63;100.00